createdAt,value
2019-03-22T00:00:51.649Z,9.60
2019-03-22T00:03:21.079Z,9.50
2019-03-22T00:05:50.596Z,9.50
2019-03-22T00:08:20.086Z,9.40
2019-03-22T00:10:49.483Z,9.50
2019-03-22T00:13:19.053Z,9.50
2019-03-22T00:15:48.527Z,9.40
2019-03-22T00:18:17.946Z,9.40
2019-03-22T00:20:49.620Z,9.40
2019-03-22T00:23:19.094Z,9.40
2019-03-22T00:25:48.650Z,9.30
2019-03-22T00:28:19.419Z,9.30
2019-03-22T00:30:48.840Z,9.20
2019-03-22T00:33:18.241Z,9.20
2019-03-22T00:35:47.720Z,9.10
2019-03-22T00:38:17.261Z,9.10
2019-03-22T00:40:46.663Z,9.00
2019-03-22T00:43:16.132Z,8.90
2019-03-22T00:45:45.740Z,8.80
2019-03-22T00:48:15.224Z,8.70
2019-03-22T00:50:44.881Z,8.70
2019-03-22T00:53:14.268Z,8.60
2019-03-22T00:55:43.667Z,8.60
2019-03-22T00:58:13.071Z,8.50
2019-03-22T01:00:42.557Z,8.50
2019-03-22T01:03:11.935Z,8.50
2019-03-22T01:05:41.431Z,8.50
2019-03-22T01:08:10.927Z,8.50
2019-03-22T01:10:40.357Z,8.60
2019-03-22T01:13:09.949Z,8.60
2019-03-22T01:15:39.420Z,8.60
2019-03-22T01:18:09.000Z,8.50
2019-03-22T01:20:38.576Z,8.60
2019-03-22T01:23:08.017Z,8.60
2019-03-22T01:25:37.549Z,8.60
2019-03-22T01:28:07.144Z,8.60
2019-03-22T01:30:36.650Z,8.70
2019-03-22T01:33:06.227Z,8.70
2019-03-22T01:35:35.734Z,8.70
2019-03-22T01:38:05.248Z,8.80
2019-03-22T01:40:34.787Z,8.80
2019-03-22T01:43:05.147Z,8.80
2019-03-22T01:45:34.567Z,8.80
2019-03-22T01:48:06.207Z,8.90
2019-03-22T01:50:35.767Z,8.80
2019-03-22T01:53:05.267Z,8.90
2019-03-22T01:55:35.161Z,8.90
2019-03-22T01:58:04.703Z,8.80
2019-03-22T02:00:36.552Z,8.90
2019-03-22T02:03:06.107Z,8.90
2019-03-22T02:05:35.541Z,8.90
2019-03-22T02:08:05.165Z,8.90
2019-03-22T02:10:34.796Z,9.00
2019-03-22T02:13:04.208Z,9.00
2019-03-22T02:15:33.693Z,9.00
2019-03-22T02:18:03.358Z,9.00
2019-03-22T02:20:32.915Z,9.00
2019-03-22T02:23:02.418Z,9.00
2019-03-22T02:25:31.913Z,9.00
2019-03-22T02:28:04.304Z,9.00
2019-03-22T02:30:32.676Z,9.00
2019-03-22T02:33:02.266Z,8.90
2019-03-22T02:35:31.776Z,8.90
2019-03-22T02:38:01.280Z,9.00
2019-03-22T02:40:30.861Z,9.00
2019-03-22T02:43:00.454Z,8.90
2019-03-22T02:45:29.903Z,8.90
2019-03-22T02:47:59.523Z,8.90
2019-03-22T02:50:29.114Z,8.80
2019-03-22T02:52:58.597Z,8.80
2019-03-22T02:55:28.100Z,8.80
2019-03-22T02:57:57.491Z,8.80
2019-03-22T03:00:26.963Z,8.70
2019-03-22T03:02:56.376Z,8.70
2019-03-22T03:05:25.834Z,8.70
2019-03-22T03:07:55.302Z,8.70
2019-03-22T03:10:24.715Z,8.70
2019-03-22T03:12:54.207Z,8.70
2019-03-22T03:15:23.733Z,8.70
2019-03-22T03:17:53.167Z,8.70
2019-03-22T03:20:22.745Z,8.70
2019-03-22T03:22:52.239Z,8.70
2019-03-22T03:25:21.885Z,8.70
2019-03-22T03:27:51.339Z,8.60
2019-03-22T03:30:21.066Z,8.60
2019-03-22T03:32:51.909Z,8.50
2019-03-22T03:35:21.518Z,8.50
2019-03-22T03:37:51.102Z,8.50
2019-03-22T03:40:20.696Z,8.50
2019-03-22T03:42:50.245Z,8.50
2019-03-22T03:45:38.692Z,8.40
2019-03-22T03:48:08.902Z,8.30
2019-03-22T03:50:38.960Z,8.30
2019-03-22T03:53:08.515Z,8.30
2019-03-22T03:55:38.023Z,8.30
2019-03-22T03:58:07.695Z,8.20
2019-03-22T04:00:37.203Z,8.20
2019-03-22T04:03:06.677Z,8.20
2019-03-22T04:05:36.212Z,8.10
2019-03-22T04:08:05.975Z,8.10
2019-03-22T04:10:35.686Z,8.10
2019-03-22T04:13:05.328Z,8.10
2019-03-22T04:15:34.794Z,8.10
2019-03-22T04:18:04.323Z,8.10
2019-03-22T04:20:33.721Z,8.10
2019-03-22T04:23:03.463Z,8.00
2019-03-22T04:25:33.118Z,8.00
2019-03-22T04:28:02.870Z,8.00
2019-03-22T04:30:32.275Z,7.90
2019-03-22T04:33:01.769Z,7.80
2019-03-22T04:35:31.219Z,7.70
2019-03-22T04:38:00.698Z,7.70
2019-03-22T04:40:30.274Z,7.80
2019-03-22T04:42:59.870Z,7.80
2019-03-22T04:45:31.078Z,7.80
2019-03-22T04:48:18.982Z,7.80
2019-03-22T04:50:50.672Z,7.70
2019-03-22T04:53:23.208Z,7.70
2019-03-22T04:55:57.892Z,7.70
2019-03-22T04:58:29.780Z,7.70
2019-03-22T05:01:00.948Z,7.70
2019-03-22T05:03:32.353Z,7.70
2019-03-22T05:06:03.768Z,7.70
2019-03-22T05:08:37.159Z,7.70
2019-03-22T05:11:08.551Z,7.70
2019-03-22T05:13:39.051Z,7.60
2019-03-22T05:16:12.284Z,7.70
2019-03-22T05:18:45.029Z,7.60
2019-03-22T05:21:16.752Z,7.60
2019-03-22T05:23:48.652Z,7.60
2019-03-22T05:26:19.931Z,7.60
2019-03-22T05:28:50.477Z,7.50
2019-03-22T05:31:32.133Z,7.50
2019-03-22T05:34:01.552Z,7.60
2019-03-22T05:36:30.981Z,7.60
2019-03-22T05:39:00.416Z,7.60
2019-03-22T05:41:29.791Z,7.60
2019-03-22T05:43:59.214Z,7.60
2019-03-22T05:46:28.623Z,7.60
2019-03-22T05:48:58.317Z,7.60
2019-03-22T05:51:27.691Z,7.60
2019-03-22T05:53:57.184Z,7.50
2019-03-22T05:56:26.719Z,7.60
2019-03-22T05:58:56.229Z,7.60
2019-03-22T06:01:25.741Z,7.60
2019-03-22T06:03:57.671Z,7.60
2019-03-22T06:06:27.104Z,7.60
2019-03-22T06:08:56.701Z,7.60
2019-03-22T06:11:26.301Z,7.60
2019-03-22T06:13:55.873Z,7.50
2019-03-22T06:16:25.461Z,7.60
2019-03-22T06:18:57.997Z,7.50
2019-03-22T06:21:33.492Z,7.60
2019-03-22T06:24:04.385Z,7.60
2019-03-22T06:26:37.055Z,7.60
2019-03-22T06:29:06.693Z,7.60
2019-03-22T06:31:39.901Z,7.60
2019-03-22T06:34:09.560Z,7.50
2019-03-22T06:36:39.176Z,7.50
2019-03-22T06:39:09.994Z,7.50
2019-03-22T06:41:40.260Z,7.50
2019-03-22T06:44:09.776Z,7.50
2019-03-22T06:46:39.372Z,7.60
2019-03-22T06:49:08.986Z,7.70
2019-03-22T06:51:39.063Z,7.70
2019-03-22T06:54:08.683Z,7.70
2019-03-22T06:56:38.108Z,7.70
2019-03-22T06:59:07.685Z,7.70
2019-03-22T07:01:37.234Z,7.70
2019-03-22T07:04:13.383Z,7.70
2019-03-22T07:06:52.921Z,7.80
2019-03-22T07:09:16.237Z,7.70
2019-03-22T07:11:45.767Z,7.70
2019-03-22T07:14:17.531Z,7.70
2019-03-22T07:16:47.166Z,7.70
2019-03-22T07:19:16.677Z,7.70
2019-03-22T07:21:46.310Z,7.70
2019-03-22T07:24:15.872Z,7.70
2019-03-22T07:26:47.628Z,7.80
2019-03-22T07:29:17.161Z,7.80
2019-03-22T07:31:46.659Z,7.90
2019-03-22T07:34:16.193Z,7.90
2019-03-22T07:36:47.004Z,8.00
2019-03-22T07:39:16.889Z,8.00
2019-03-22T07:41:46.392Z,8.10
2019-03-22T07:44:15.936Z,8.10
2019-03-22T07:46:45.460Z,8.10
2019-03-22T07:49:15.032Z,8.10
2019-03-22T07:51:46.807Z,8.20
2019-03-22T07:54:16.307Z,8.20
2019-03-22T07:56:45.904Z,8.30
2019-03-22T07:59:15.348Z,8.30
2019-03-22T08:01:50.317Z,8.40
2019-03-22T08:04:22.257Z,8.50
2019-03-22T08:06:58.192Z,8.50
2019-03-22T08:09:28.040Z,8.70
2019-03-22T08:12:02.490Z,8.70
2019-03-22T08:14:29.452Z,8.70
2019-03-22T08:16:58.976Z,8.80
2019-03-22T08:19:28.552Z,8.90
2019-03-22T08:21:58.211Z,8.90
2019-03-22T08:24:28.722Z,9.00
2019-03-22T08:26:58.235Z,9.10
2019-03-22T08:29:28.071Z,9.20
2019-03-22T08:31:57.640Z,9.30
2019-03-22T08:34:27.260Z,9.40
2019-03-22T08:36:56.696Z,9.50
2019-03-22T08:39:26.269Z,9.60
2019-03-22T08:41:55.755Z,9.70
2019-03-22T08:44:25.202Z,9.70
2019-03-22T08:46:54.719Z,9.70
2019-03-22T08:49:24.182Z,9.80
2019-03-22T08:51:54.979Z,9.90
2019-03-22T08:54:24.512Z,10.00
2019-03-22T08:56:54.085Z,9.90
2019-03-22T08:59:24.855Z,10.00
2019-03-22T09:01:54.368Z,10.10
2019-03-22T09:04:23.937Z,10.10
2019-03-22T09:06:58.923Z,10.20
2019-03-22T09:09:27.435Z,10.20
2019-03-22T09:11:57.018Z,10.20
2019-03-22T09:14:28.684Z,10.20
2019-03-22T09:16:58.136Z,10.30
2019-03-22T09:19:27.552Z,10.20
2019-03-22T09:21:59.508Z,10.40
2019-03-22T09:24:38.608Z,10.50
2019-03-22T09:27:01.217Z,10.50
2019-03-22T09:29:30.708Z,10.60
2019-03-22T09:32:00.281Z,10.70
2019-03-22T09:34:33.872Z,10.60
2019-03-22T09:37:02.499Z,10.60
2019-03-22T09:39:34.438Z,10.60
2019-03-22T09:42:06.193Z,10.80
2019-03-22T09:44:43.305Z,11.00
2019-03-22T09:47:07.458Z,11.00
2019-03-22T09:49:37.030Z,11.10
2019-03-22T09:52:06.635Z,11.20
2019-03-22T09:54:36.162Z,11.40
2019-03-22T09:57:05.802Z,11.40
2019-03-22T09:59:35.388Z,11.40
2019-03-22T10:02:04.965Z,11.50
2019-03-22T10:04:34.566Z,11.60
2019-03-22T10:07:04.224Z,11.70
2019-03-22T10:09:35.931Z,11.70
2019-03-22T10:12:05.585Z,11.80
2019-03-22T10:14:35.144Z,12.00
2019-03-22T10:17:04.732Z,12.10
2019-03-22T10:19:34.297Z,12.30
2019-03-22T10:22:03.845Z,12.40
2019-03-22T10:24:33.380Z,12.50
2019-03-22T10:27:05.164Z,12.50
2019-03-22T10:29:34.202Z,12.60
2019-03-22T10:32:03.937Z,12.60
2019-03-22T10:34:33.492Z,12.60
2019-03-22T10:37:03.042Z,12.70
2019-03-22T10:39:32.492Z,12.80
2019-03-22T10:42:01.886Z,12.90
2019-03-22T10:44:31.337Z,13.10
2019-03-22T10:47:00.861Z,13.30
2019-03-22T10:49:30.345Z,13.40
2019-03-22T10:51:59.989Z,13.50
2019-03-22T10:54:29.446Z,13.50
2019-03-22T10:56:59.159Z,13.40
2019-03-22T10:59:28.729Z,13.40
2019-03-22T11:02:03.558Z,13.50
2019-03-22T11:04:29.628Z,13.70
2019-03-22T11:06:59.350Z,13.90
2019-03-22T11:09:29.061Z,14.00
2019-03-22T11:11:58.723Z,14.20
2019-03-22T11:14:28.312Z,14.30
2019-03-22T11:16:58.033Z,14.50
2019-03-22T11:19:27.532Z,14.60
2019-03-22T11:21:57.540Z,14.70
2019-03-22T11:24:27.048Z,14.70
2019-03-22T11:26:56.529Z,14.40
2019-03-22T11:29:26.048Z,14.30
2019-03-22T11:31:55.592Z,14.10
2019-03-22T11:34:25.259Z,14.10
2019-03-22T11:36:55.018Z,13.90
2019-03-22T11:39:24.647Z,13.90
2019-03-22T11:41:54.322Z,13.90
2019-03-22T11:44:23.947Z,13.80
2019-03-22T11:46:55.739Z,13.70
2019-03-22T11:49:26.889Z,13.80
2019-03-22T11:51:57.231Z,13.70
2019-03-22T11:54:31.626Z,13.70
2019-03-22T11:57:01.231Z,13.80
2019-03-22T11:59:31.044Z,13.80
2019-03-22T12:02:01.661Z,13.90
2019-03-22T12:04:31.254Z,13.90
2019-03-22T12:07:00.678Z,13.80
2019-03-22T12:09:34.374Z,13.80
2019-03-22T12:12:04.053Z,13.70
2019-03-22T12:14:37.649Z,13.70
2019-03-22T12:17:11.059Z,13.80
2019-03-22T12:19:43.731Z,13.80
2019-03-22T12:22:15.628Z,13.80
2019-03-22T12:24:45.434Z,13.90
2019-03-22T12:27:24.710Z,13.90
2019-03-22T12:29:55.173Z,13.90
2019-03-22T12:32:32.226Z,14.00
2019-03-22T12:34:59.742Z,14.00
2019-03-22T12:37:32.282Z,14.00
2019-03-22T12:40:03.750Z,13.90
2019-03-22T12:42:33.366Z,14.00
2019-03-22T12:45:07.193Z,14.00
2019-03-22T12:47:36.820Z,13.90
2019-03-22T12:50:10.011Z,13.90
2019-03-22T12:52:39.551Z,14.00
2019-03-22T12:55:10.753Z,14.10
2019-03-22T12:57:40.321Z,14.10
2019-03-22T13:00:14.037Z,14.10
2019-03-22T13:02:43.493Z,14.20
2019-03-22T13:05:13.543Z,14.20
2019-03-22T13:07:43.169Z,14.30
2019-03-22T13:10:14.442Z,14.30
2019-03-22T13:12:45.232Z,14.30
2019-03-22T13:15:16.987Z,14.40
2019-03-22T13:17:46.802Z,14.40
2019-03-22T13:20:16.511Z,14.50
2019-03-22T13:22:46.184Z,14.50
2019-03-22T13:25:15.929Z,14.50
2019-03-22T13:27:45.838Z,14.50
2019-03-22T13:30:39.063Z,14.60
2019-03-22T13:33:08.918Z,14.70
2019-03-22T13:35:38.504Z,14.70
2019-03-22T13:38:08.160Z,14.80
2019-03-22T13:40:37.661Z,14.80
2019-03-22T13:43:07.258Z,14.90
2019-03-22T13:45:37.195Z,14.90
2019-03-22T13:48:10.574Z,14.90
2019-03-22T13:50:45.195Z,14.90
2019-03-22T13:53:14.729Z,14.90
2019-03-22T13:58:57.859Z,15.00
2019-03-22T14:02:16.178Z,15.00
2019-03-22T14:04:54.526Z,15.00
2019-03-22T14:07:24.497Z,15.10
2019-03-22T14:09:54.045Z,15.20
2019-03-22T14:12:23.665Z,15.30
2019-03-22T14:14:53.257Z,15.30
2019-03-22T14:17:24.580Z,15.30
2019-03-22T14:19:54.300Z,15.40
2019-03-22T14:22:23.835Z,15.40
2019-03-22T14:27:58.322Z,15.60
2019-03-22T14:30:43.602Z,15.60
2019-03-22T14:36:22.246Z,15.70
2019-03-22T14:45:27.117Z,15.70
2019-03-22T14:47:57.029Z,15.80
2019-03-22T14:50:31.776Z,15.80
2019-03-22T14:53:22.105Z,15.90
2019-03-22T14:55:51.645Z,15.90
2019-03-22T15:01:13.614Z,15.90
2019-03-22T15:03:43.184Z,16.00
2019-03-22T15:06:15.462Z,16.00
2019-03-22T15:08:50.306Z,16.10
2019-03-22T15:11:20.153Z,16.10
2019-03-22T15:14:19.395Z,16.10
2019-03-22T15:17:11.935Z,16.00
2019-03-22T15:23:10.945Z,16.10
2019-03-22T15:26:02.286Z,16.20
2019-03-22T15:28:49.250Z,16.20
2019-03-22T15:31:36.743Z,16.20
2019-03-22T15:34:26.279Z,16.20
2019-03-22T15:37:15.344Z,16.10
2019-03-22T15:40:01.957Z,16.20
2019-03-22T15:42:35.933Z,16.10
2019-03-22T15:47:47.732Z,16.10
2019-03-22T15:50:18.016Z,16.10
2019-03-22T15:52:47.875Z,16.10
2019-03-22T15:55:17.647Z,16.10
2019-03-22T15:57:47.219Z,16.10
2019-03-22T16:00:24.576Z,16.00
2019-03-22T16:02:54.257Z,16.00
2019-03-22T16:11:46.593Z,15.90
2019-03-22T16:14:18.480Z,15.90
2019-03-22T16:16:48.155Z,15.90
2019-03-22T16:19:20.844Z,15.90
2019-03-22T16:21:53.602Z,15.90
2019-03-22T16:24:29.796Z,15.90
2019-03-22T16:27:16.162Z,15.90
2019-03-22T16:29:45.818Z,15.80
2019-03-22T16:32:15.468Z,15.80
2019-03-22T16:34:50.180Z,15.80
2019-03-22T16:37:19.878Z,15.70
2019-03-22T16:39:49.914Z,15.60
2019-03-22T16:42:19.571Z,15.40
2019-03-22T16:44:50.966Z,15.30
2019-03-22T16:47:20.636Z,15.10
2019-03-22T16:49:50.191Z,15.00
2019-03-22T16:52:21.299Z,14.80
2019-03-22T16:54:50.977Z,14.60
2019-03-22T16:57:21.929Z,14.50
2019-03-22T16:59:51.858Z,14.30
2019-03-22T17:02:25.625Z,14.10
2019-03-22T17:04:55.137Z,14.00
2019-03-22T17:07:26.779Z,13.90
2019-03-22T17:09:58.305Z,13.70
2019-03-22T17:12:27.889Z,13.50
2019-03-22T17:14:57.465Z,13.40
2019-03-22T17:17:29.814Z,13.20
2019-03-22T17:20:01.592Z,13.00
2019-03-22T17:22:31.382Z,12.90
2019-03-22T17:25:00.914Z,12.80
2019-03-22T17:27:30.560Z,12.70
2019-03-22T17:30:05.810Z,12.60
2019-03-22T17:32:35.467Z,12.40
2019-03-22T17:35:05.291Z,12.30
2019-03-22T17:37:37.265Z,12.20
2019-03-22T17:40:07.311Z,12.00
2019-03-22T17:42:37.088Z,11.90
2019-03-22T17:45:09.400Z,11.70
2019-03-22T17:47:39.156Z,11.60
2019-03-22T17:50:10.462Z,11.50
2019-03-22T17:52:40.212Z,11.30
2019-03-22T17:55:15.243Z,11.10
2019-03-22T17:58:47.385Z,11.00
2019-03-22T18:00:47.671Z,10.90
2019-03-22T18:03:20.744Z,10.80
2019-03-22T18:05:58.140Z,10.70
2019-03-22T18:08:28.106Z,10.70
2019-03-22T18:10:58.199Z,10.70
2019-03-22T18:13:28.049Z,10.60
2019-03-22T18:15:57.695Z,10.50
2019-03-22T18:18:27.333Z,10.40
2019-03-22T18:20:58.267Z,10.30
2019-03-22T18:23:35.510Z,10.20
2019-03-22T18:25:59.601Z,10.10
2019-03-22T18:28:29.205Z,10.00
2019-03-22T18:30:59.111Z,9.90
2019-03-22T18:33:29.153Z,9.90
2019-03-22T18:36:03.405Z,9.70
2019-03-22T18:38:33.066Z,9.60
2019-03-22T18:41:05.796Z,9.60
2019-03-22T18:43:35.296Z,9.60
2019-03-22T18:46:05.376Z,9.50
2019-03-22T18:48:40.549Z,9.30
2019-03-22T18:51:10.233Z,9.20
2019-03-22T18:53:41.073Z,9.20
2019-03-22T18:56:10.697Z,9.10
2019-03-22T18:58:40.393Z,9.10
2019-03-22T19:01:09.956Z,9.10
2019-03-22T19:03:39.417Z,9.00
2019-03-22T19:06:09.169Z,9.00
2019-03-22T19:08:38.720Z,9.00
2019-03-22T19:11:08.640Z,9.00
2019-03-22T19:13:38.168Z,9.10
2019-03-22T19:16:07.981Z,9.10
2019-03-22T19:18:39.868Z,9.10
2019-03-22T19:21:09.483Z,9.00
2019-03-22T19:23:40.746Z,8.90
2019-03-22T19:26:10.428Z,8.90
2019-03-22T19:28:39.976Z,9.00
2019-03-22T19:31:09.597Z,9.10
2019-03-22T19:33:39.216Z,9.20
2019-03-22T19:36:08.854Z,9.20
2019-03-22T19:38:38.407Z,9.20
2019-03-22T19:41:07.985Z,9.20
2019-03-22T19:43:37.485Z,9.10
2019-03-22T19:46:07.069Z,9.10
2019-03-22T19:48:39.016Z,9.10
2019-03-22T19:51:08.505Z,9.10
2019-03-22T19:53:44.826Z,9.10
2019-03-22T19:56:10.041Z,9.20
2019-03-22T19:58:39.751Z,9.20
2019-03-22T20:01:11.904Z,9.20
2019-03-22T20:03:41.389Z,9.20
2019-03-22T20:06:10.850Z,9.20
2019-03-22T20:08:41.953Z,9.20
2019-03-22T20:11:11.986Z,9.30
2019-03-22T20:13:41.612Z,9.30
2019-03-22T20:16:12.740Z,9.20
2019-03-22T20:18:42.315Z,9.20
2019-03-22T20:21:11.896Z,9.20
2019-03-22T20:23:41.365Z,9.20
2019-03-22T20:26:11.040Z,9.20
2019-03-22T20:28:40.417Z,9.20
2019-03-22T20:31:12.029Z,9.20
2019-03-22T20:34:13.746Z,9.20
2019-03-22T20:36:45.005Z,9.30
2019-03-22T20:39:17.463Z,9.30
2019-03-22T20:41:49.012Z,9.30
2019-03-22T20:44:18.688Z,9.30
2019-03-22T20:46:48.253Z,9.20
2019-03-22T20:49:17.805Z,9.20
2019-03-22T20:51:47.744Z,9.10
2019-03-22T20:54:17.175Z,9.10
2019-03-22T20:56:46.938Z,9.10
2019-03-22T20:59:16.472Z,9.10
2019-03-22T21:01:49.076Z,9.10
2019-03-22T21:04:18.577Z,9.20
2019-03-22T21:09:20.109Z,9.20
2019-03-22T21:11:49.858Z,9.20
2019-03-22T21:14:19.657Z,9.30
2019-03-22T21:16:49.148Z,9.30
2019-03-22T21:19:18.686Z,9.30
2019-03-22T21:21:48.101Z,9.30
2019-03-22T21:24:18.147Z,9.30
2019-03-22T21:26:47.619Z,9.30
2019-03-22T21:29:17.012Z,9.40
2019-03-22T21:31:46.591Z,9.40
2019-03-22T21:34:16.055Z,9.40
2019-03-22T21:36:45.557Z,9.50
2019-03-22T21:39:15.227Z,9.50
2019-03-22T21:41:46.713Z,9.50
2019-03-22T21:44:16.195Z,9.50
2019-03-22T21:46:48.663Z,9.40
2019-03-22T21:49:18.357Z,9.40
2019-03-22T21:51:47.864Z,9.50
2019-03-22T21:54:17.255Z,9.50
2019-03-22T21:56:46.830Z,9.50
2019-03-22T21:59:15.415Z,9.50
2019-03-22T22:01:46.488Z,9.50
2019-03-22T22:04:15.896Z,9.60
2019-03-22T22:06:47.776Z,9.60
2019-03-22T22:09:17.968Z,9.60
2019-03-22T22:11:47.452Z,9.70
2019-03-22T22:14:17.171Z,9.70
2019-03-22T22:16:48.760Z,9.70
2019-03-22T22:19:18.469Z,9.70
2019-03-22T22:21:48.180Z,9.70
2019-03-22T22:24:18.243Z,9.70
2019-03-22T22:26:48.005Z,9.70
2019-03-22T22:29:17.578Z,9.70
2019-03-22T22:31:49.503Z,9.70
2019-03-22T22:34:19.281Z,9.70
2019-03-22T22:36:49.300Z,9.70
2019-03-22T22:39:18.925Z,9.70
2019-03-22T22:41:48.499Z,9.70
2019-03-22T22:44:18.024Z,9.60
2019-03-22T22:46:47.585Z,9.60
2019-03-22T22:49:17.209Z,9.60
2019-03-22T22:51:46.674Z,9.60
2019-03-22T22:54:16.136Z,9.70
2019-03-22T22:56:45.598Z,9.70
2019-03-22T22:59:17.762Z,9.70
2019-03-22T23:01:47.245Z,9.70
2019-03-22T23:04:16.735Z,9.70
2019-03-22T23:06:46.130Z,9.70
2019-03-22T23:09:17.972Z,9.70
2019-03-22T23:11:47.425Z,9.70
2019-03-22T23:14:16.895Z,9.70
2019-03-22T23:16:46.384Z,9.70
2019-03-22T23:19:15.855Z,9.70
2019-03-22T23:21:45.373Z,9.70
2019-03-22T23:24:14.863Z,9.80
2019-03-22T23:26:44.370Z,9.80
2019-03-22T23:29:13.800Z,9.80
2019-03-22T23:31:43.436Z,9.80
2019-03-22T23:34:15.049Z,9.80
2019-03-22T23:36:47.027Z,9.80
2019-03-22T23:39:16.502Z,9.80
2019-03-22T23:41:45.917Z,9.90
2019-03-22T23:44:15.512Z,9.90
2019-03-22T23:46:46.697Z,9.90
2019-03-22T23:49:16.106Z,9.90
2019-03-22T23:51:47.929Z,9.90
2019-03-22T23:54:17.538Z,9.90
2019-03-22T23:56:46.978Z,9.90
2019-03-22T23:59:16.501Z,9.90
